Time;durP1;ratioP1;P1;durP2;ratioP2;P2;SDS_P1;SDS_P2;PMS_P1;PMS_P2;Temp;Humidity;BMP_temperature;BMP_pressure;BME280_temperature;BME280_humidity;BME280_pressure;Samples;Min_cycle;Max_cycle;Signal;HPM_P1;HPM_P2
2021/04/11 00:01:01;;;;;;;7.00;4.50;;;;;;;4.62;52.68;97139.42;1786720;78;20558;-54
2021/04/11 00:03:29;;;;;;;7.87;4.00;;;;;;;4.58;52.78;97132.75;1775156;79;21192;-54
2021/04/11 00:05:58;;;;;;;7.17;3.98;;;;;;;4.58;52.73;97137.89;1778652;79;21085;-54
2021/04/11 00:08:26;;;;;;;6.55;4.25;;;;;;;4.54;53.09;97131.17;1782793;79;21580;-56
2021/04/11 00:11:01;;;;;;;9.18;4.78;;;;;;;4.47;53.17;97133.59;1777100;79;21615;-54
2021/04/11 00:13:33;;;;;;;9.23;4.58;;;;;;;4.41;53.29;97144.95;1773767;79;21509;-57
2021/04/11 00:16:03;;;;;;;7.12;4.10;;;;;;;4.38;53.44;97140.75;1780945;78;21333;-57
2021/04/11 00:18:32;;;;;;;9.38;4.67;;;;;;;4.34;53.56;97139.20;1765462;79;21679;-54
2021/04/11 00:21:03;;;;;;;7.10;4.10;;;;;;;4.30;53.53;97141.48;1758846;80;21056;-53
2021/04/11 00:23:31;;;;;;;12.45;4.58;;;;;;;4.29;53.81;97147.49;1724710;80;21056;-54
2021/04/11 00:25:59;;;;;;;7.78;4.92;;;;;;;4.26;54.00;97150.20;1767329;79;21083;-54
2021/04/11 00:28:27;;;;;;;7.10;4.58;;;;;;;4.25;54.14;97153.66;1768929;79;21419;-54
2021/04/11 00:30:56;;;;;;;8.10;4.20;;;;;;;4.22;54.29;97157.16;1762649;80;21480;-56
2021/04/11 00:33:35;;;;;;;9.00;4.17;;;;;;;4.18;54.24;97158.18;1763135;79;21203;-54
2021/04/11 00:36:07;;;;;;;9.90;4.33;;;;;;;4.16;54.31;97157.83;1736360;80;21120;-54
2021/04/11 00:38:35;;;;;;;9.38;4.90;;;;;;;4.12;54.27;97167.38;1777789;79;21120;-55
2021/04/11 00:41:20;;;;;;;8.80;4.08;;;;;;;4.09;54.47;97165.37;1767315;79;21212;-55
2021/04/11 00:43:48;;;;;;;7.90;4.50;;;;;;;4.01;54.64;97155.36;1749723;79;21230;-54
2021/04/11 00:46:40;;;;;;;5.30;4.05;;;;;;;4.01;54.91;97166.91;1723825;80;21112;-54
2021/04/11 00:49:28;;;;;;;7.40;4.47;;;;;;;3.97;54.98;97163.63;1761893;79;21051;-55
2021/04/11 00:51:57;;;;;;;7.08;4.25;;;;;;;3.99;54.84;97164.85;1761868;79;21032;-53
2021/04/11 00:54:26;;;;;;;9.88;4.08;;;;;;;4.06;54.68;97172.72;1741581;79;21398;-55
2021/04/11 00:56:54;;;;;;;7.12;4.10;;;;;;;4.14;54.44;97167.33;1760346;80;21555;-54
2021/04/11 00:59:22;;;;;;;5.28;4.10;;;;;;;4.17;54.45;97168.05;1757664;79;21611;-53
2021/04/11 01:01:52;;;;;;;7.80;4.15;;;;;;;4.18;54.31;97171.02;1752574;80;21149;-55
2021/04/11 01:04:20;;;;;;;7.03;3.77;;;;;;;4.16;54.50;97172.81;1765252;79;21064;-54
2021/04/11 01:06:57;;;;;;;7.55;4.22;;;;;;;4.11;54.55;97177.28;1720582;79;21114;-53
2021/04/11 01:09:32;;;;;;;6.97;4.25;;;;;;;4.10;54.78;97173.48;1766689;79;21131;-54
2021/04/11 01:12:06;;;;;;;9.58;4.08;;;;;;;4.06;54.88;97165.02;1756306;79;21132;-55
2021/04/11 01:14:36;;;;;;;9.33;4.10;;;;;;;4.00;54.91;97172.50;1736483;79;21437;-55
2021/04/11 01:17:09;;;;;;;7.35;4.00;;;;;;;3.99;55.18;97166.14;1762137;79;21295;-55
2021/04/11 01:19:40;;;;;;;6.37;3.80;;;;;;;3.95;55.25;97164.13;1759911;79;21127;-54
2021/04/11 01:22:54;;;;;;;5.35;4.00;;;;;;;3.96;55.24;97161.93;1745093;80;21088;-54
2021/04/11 01:25:27;;;;;;;6.47;4.12;;;;;;;3.96;55.30;97163.67;1741891;79;21179;-56
2021/04/11 01:27:57;;;;;;;8.03;4.17;;;;;;;3.94;55.36;97162.89;1737754;80;21128;-56
2021/04/11 01:30:30;;;;;;;6.83;4.62;;;;;;;3.92;55.46;97156.98;1742108;80;21175;-54
2021/04/11 01:33:01;;;;;;;7.72;4.40;;;;;;;3.85;55.70;97157.64;1740702;80;21481;-55
2021/04/11 01:35:30;;;;;;;6.35;3.98;;;;;;;3.85;55.70;97157.64;1758656;79;21100;-58
2021/04/11 01:37:58;;;;;;;7.78;4.12;;;;;;;3.85;55.79;97157.64;1765968;79;21147;-55
2021/04/11 01:40:36;;;;;;;8.10;4.10;;;;;;;3.83;55.94;97156.41;1776018;79;21081;-53
2021/04/11 01:43:06;;;;;;;7.47;4.25;;;;;;;3.83;55.83;97156.41;1776658;79;21151;-53
2021/04/11 01:45:35;;;;;;;;;;;;;;;3.85;55.81;97164.06;1743638;80;21209;-53
2021/04/11 01:48:08;;;;;;;5.60;4.00;;;;;;;3.83;55.86;97152.56;1732504;80;20236;-54
2021/04/11 01:50:36;;;;;;;40.70;22.80;;;;;;;3.83;55.86;97152.56;1758035;79;21108;-54
2021/04/11 01:53:04;;;;;;;26.53;11.80;;;;;;;3.90;55.91;97153.19;1759392;79;21109;-53
2021/04/11 01:55:32;;;;;;;13.53;5.23;;;;;;;4.00;55.61;97157.55;1729643;79;21573;-54
2021/04/11 01:58:02;;;;;;;7.90;4.10;;;;;;;4.03;55.43;97160.84;1758834;79;21442;-55
2021/04/11 02:00:35;;;;;;;6.90;4.15;;;;;;;4.04;55.35;97163.78;1760367;79;21083;-55
2021/04/11 02:03:14;;;;;;;6.67;4.10;;;;;;;4.03;55.22;97157.45;1771934;79;21112;-57
2021/04/11 02:05:45;;;;;;;6.78;4.00;;;;;;;4.05;55.19;97159.51;1764571;80;21178;-56
2021/04/11 02:08:21;;;;;;;7.00;4.45;;;;;;;4.07;55.21;97160.28;1752038;80;21603;-55
2021/04/11 02:10:54;;;;;;;6.17;3.62;;;;;;;4.07;55.13;97158.17;1762722;80;21383;-54
2021/04/11 02:13:28;;;;;;;6.00;3.83;;;;;;;4.09;55.11;97158.49;1762516;79;37444;-55
2021/04/11 02:16:01;;;;;;;8.18;4.47;;;;;;;4.12;55.04;97153.25;1759571;79;21067;-54
2021/04/11 02:18:33;;;;;;;6.30;3.70;;;;;;;4.11;55.06;97146.45;1704979;83;21240;-53
2021/04/11 02:21:15;;;;;;;6.60;4.00;;;;;;;4.11;55.06;97146.45;1764534;79;21545;-53
2021/04/11 02:23:43;;;;;;;6.20;4.40;;;;;;;4.14;55.07;97153.20;1756515;79;21470;-53
2021/04/11 02:26:16;;;;;;;9.33;4.15;;;;;;;4.15;54.87;97148.47;1680201;84;21106;-56
2021/04/11 02:28:46;;;;;;;5.53;3.77;;;;;;;4.15;54.79;97145.90;1755856;80;21646;-54
2021/04/11 02:31:24;;;;;;;5.87;4.20;;;;;;;4.15;54.96;97149.30;1680857;83;21614;-53
2021/04/11 02:33:58;;;;;;;6.40;4.05;;;;;;;4.15;54.87;97144.61;1696499;82;21587;-54
2021/04/11 02:36:27;;;;;;;5.20;3.87;;;;;;;4.11;54.99;97145.59;1782962;77;21357;-57
2021/04/11 02:38:56;;;;;;;;;;;;;;;4.09;55.12;97148.22;1788077;78;21563;-54
2021/04/11 02:41:25;;;;;;;;;;;;;;;4.05;55.11;97144.10;1805247;77;20211;-54
2021/04/11 02:43:55;;;;;;;9.08;4.30;;;;;;;4.02;55.30;97145.03;1784051;78;20216;-54
2021/04/11 02:46:22;;;;;;;6.42;4.17;;;;;;;3.99;55.39;97143.03;1824677;76;21099;-54
2021/04/11 02:48:53;;;;;;;7.20;4.37;;;;;;;3.98;55.50;97144.77;1813705;77;22149;-54
2021/04/11 02:51:27;;;;;;;6.25;4.30;;;;;;;3.98;55.52;97140.91;1791543;77;21138;-54
2021/04/11 02:53:57;;;;;;;5.83;3.80;;;;;;;3.97;55.48;97135.37;1760474;79;21103;-54
2021/04/11 02:56:28;;;;;;;9.45;4.22;;;;;;;3.98;55.51;97140.05;1803870;77;21071;-54
2021/04/11 02:58:56;;;;;;;6.27;4.43;;;;;;;3.93;55.51;97138.96;1745758;80;21136;-56
2021/04/11 03:01:35;;;;;;;5.12;3.83;;;;;;;3.93;55.56;97138.96;1769694;79;21383;-54
2021/04/11 03:04:05;;;;;;;6.15;3.67;;;;;;;3.94;55.58;97143.64;1758605;80;21116;-54
2021/04/11 03:06:36;;;;;;;6.50;4.33;;;;;;;3.92;55.69;97135.98;1731635;79;21151;-54
2021/04/11 03:09:09;;;;;;;6.12;4.17;;;;;;;3.94;55.71;97134.20;1769708;80;21112;-54
2021/04/11 03:11:42;;;;;;;6.80;4.20;;;;;;;3.99;55.58;97140.45;1766110;79;21193;-53
2021/04/11 03:14:14;;;;;;;7.00;3.98;;;;;;;3.99;55.58;97140.45;1769871;80;21467;-55
2021/04/11 03:16:42;;;;;;;6.85;3.80;;;;;;;4.04;55.49;97146.27;1766487;80;21188;-54
2021/04/11 03:19:21;;;;;;;6.78;4.10;;;;;;;4.04;55.42;97150.95;1777422;79;21095;-53
2021/04/11 03:21:52;;;;;;;6.03;3.90;;;;;;;4.04;55.48;97150.12;1767300;78;21162;-54
2021/04/11 03:24:21;;;;;;;6.35;3.95;;;;;;;4.04;55.44;97161.22;1769563;78;21499;-55
2021/04/11 03:27:17;;;;;;;7.65;3.90;;;;;;;4.03;55.50;97154.88;1772009;78;21393;-54
2021/04/11 03:29:55;;;;;;;6.47;3.92;;;;;;;4.02;55.47;97154.48;1787650;78;21159;-54
2021/04/11 03:32:37;;;;;;;5.08;3.72;;;;;;;4.02;55.39;97157.87;1743557;80;21127;-53
2021/04/11 03:35:19;;;;;;;6.27;3.93;;;;;;;4.11;55.33;97159.72;1880982;76;23710;-54
2021/04/11 03:37:47;;;;;;;5.20;3.72;;;;;;;4.04;55.40;97156.53;1783085;79;21132;-54
2021/04/11 03:40:24;;;;;;;7.08;3.80;;;;;;;4.02;55.42;97157.05;1753868;81;21368;-54
2021/04/11 03:42:58;;;;;;;7.25;4.00;;;;;;;4.01;55.42;97160.07;1836200;77;21053;-54
2021/04/11 03:45:31;;;;;;;7.10;4.37;;;;;;;4.01;55.52;97167.77;1749021;79;21145;-54
2021/04/11 03:48:16;;;;;;;6.05;4.20;;;;;;;4.05;55.37;97155.66;1845652;77;21113;-54
2021/04/11 03:51:08;;;;;;;6.17;4.58;;;;;;;4.12;55.21;97160.13;1794098;77;21148;-53
2021/04/11 03:53:47;;;;;;;5.50;3.92;;;;;;;4.22;55.06;97160.18;1841984;77;21207;-55
2021/04/11 03:56:18;;;;;;;5.45;3.65;;;;;;;4.34;54.66;97170.03;1836581;77;21113;-54
2021/04/11 03:58:50;;;;;;;8.10;3.62;;;;;;;4.54;54.32;97159.44;1824710;77;21206;-55
2021/04/11 04:01:27;;;;;;;5.75;3.67;;;;;;;4.74;53.74;97165.97;1829158;77;21100;-57
2021/04/11 04:04:04;;;;;;;8.08;4.15;;;;;;;4.97;53.23;97161.23;1838392;77;21093;-54
2021/04/11 04:06:34;;;;;;;6.87;4.12;;;;;;;5.20;52.62;97158.20;1813263;77;21350;-55
2021/04/11 04:09:05;;;;;;;8.00;3.98;;;;;;;5.47;52.06;97165.70;1834198;77;21092;-55
2021/04/11 04:12:00;;;;;;;7.33;4.20;;;;;;;5.76;51.19;97158.52;1842500;77;21101;-55
2021/04/11 04:14:57;;;;;;;8.05;4.50;;;;;;;5.93;50.44;97165.06;1825291;77;21051;-54
2021/04/11 04:18:13;;;;;;;9.40;4.37;;;;;;;6.11;49.95;97161.36;1829631;77;21097;-54
2021/04/11 04:21:27;;;;;;;6.78;3.90;;;;;;;6.33;49.62;97168.97;1792784;77;21393;-55
2021/04/11 04:24:22;;;;;;;6.37;3.85;;;;;;;6.77;48.48;97169.53;1809536;77;21117;-53
2021/04/11 04:26:59;;;;;;;5.85;3.87;;;;;;;7.09;47.45;97180.13;1792958;77;21061;-54
2021/04/11 04:30:09;;;;;;;6.62;4.47;;;;;;;7.27;46.66;97177.55;1806182;77;21069;-53
2021/04/11 04:33:19;;;;;;;8.18;4.53;;;;;;;7.41;46.82;97180.78;1757264;80;21161;-54
2021/04/11 04:36:20;;;;;;;6.05;3.80;;;;;;;7.81;45.82;97174.94;1773063;77;21221;-53
2021/04/11 04:39:19;;;;;;;6.55;4.17;;;;;;;8.26;45.00;97174.81;1797073;77;21232;-54
2021/04/11 04:41:53;;;;;;;7.85;4.45;;;;;;;8.61;44.19;97174.27;1804162;77;21525;-54
2021/04/11 04:44:43;;;;;;;6.35;4.12;;;;;;;8.98;43.40;97176.62;1807870;77;21148;-55
2021/04/11 04:47:35;;;;;;;7.85;4.37;;;;;;;9.34;42.72;97176.36;1761357;79;21061;-54
2021/04/11 04:50:18;;;;;;;7.50;4.35;;;;;;;9.71;41.89;97178.60;1816193;77;21084;-54
2021/04/11 04:53:31;;;;;;;5.85;4.25;;;;;;;9.94;40.95;97178.09;1757038;80;21065;-53
2021/04/11 04:56:04;;;;;;;4.90;3.92;;;;;;;9.99;40.82;97172.64;1813893;77;21076;-54
2021/04/11 04:58:41;;;;;;;5.55;3.95;;;;;;;10.39;40.17;97185.02;1805786;77;21184;-59
2021/04/11 05:01:24;;;;;;;23.05;13.80;;;;;;;10.71;39.45;97183.52;1811699;77;21212;-55
2021/04/11 05:03:59;;;;;;;21.10;9.30;;;;;;;11.00;39.31;97185.16;1800776;77;21372;-53
2021/04/11 05:06:41;;;;;;;7.33;4.83;;;;;;;11.64;38.67;97186.31;1815453;77;21076;-53
2021/04/11 05:09:49;;;;;;;8.28;4.05;;;;;;;12.26;37.11;97189.61;1871386;75;28783;-55
2021/04/11 05:13:05;;;;;;;6.20;4.37;;;;;;;12.64;36.07;97196.56;1821468;77;21572;-55
2021/04/11 05:15:46;;;;;;;9.78;4.40;;;;;;;13.14;35.53;97196.09;1789280;79;21385;-53
2021/04/11 05:18:28;;;;;;;6.28;4.40;;;;;;;13.86;34.67;97195.72;1765764;80;21220;-53
2021/04/11 05:21:13;;;;;;;;;;;;;;;14.68;33.15;97202.17;1749762;80;21144;-55
2021/04/11 05:23:50;;;;;;;7.08;4.65;;;;;;;15.16;32.26;97204.48;1763070;80;20510;-54
2021/04/11 05:26:23;;;;;;;5.55;4.22;;;;;;;15.60;31.60;97201.39;1762354;80;21635;-53
2021/04/11 05:29:33;;;;;;;4.90;3.98;;;;;;;15.87;30.14;97200.60;1769685;80;21307;-53
2021/04/11 05:32:09;;;;;;;9.45;4.50;;;;;;;15.98;30.39;97206.61;1864002;75;22309;-53
2021/04/11 05:34:37;;;;;;;5.75;4.10;;;;;;;16.15;30.41;97203.92;1756768;79;21101;-55
2021/04/11 05:37:40;;;;;;;6.60;4.20;;;;;;;16.84;29.58;97205.09;1763224;80;22244;-55
2021/04/11 05:40:30;;;;;;;6.20;4.22;;;;;;;17.43;28.79;97203.48;1748731;80;21101;-55
2021/04/11 05:43:16;;;;;;;5.33;4.00;;;;;;;18.15;27.57;97197.95;1752239;81;20986;-55
2021/04/11 05:45:59;;;;;;;5.47;4.37;;;;;;;18.50;26.76;97199.11;1789827;79;21122;-55
2021/04/11 05:48:47;;;;;;;6.37;4.60;;;;;;;18.61;26.29;97197.63;1830671;77;21041;-53
2021/04/11 05:51:19;;;;;;;6.87;5.20;;;;;;;18.90;26.39;97205.92;1835234;77;21343;-54
2021/04/11 05:54:13;;;;;;;9.75;6.20;;;;;;;19.66;25.83;97200.31;1770566;79;21171;-55
2021/04/11 05:56:48;;;;;;;8.68;5.20;;;;;;;20.53;24.96;97190.47;1835090;77;21113;-54
2021/04/11 05:59:32;;;;;;;11.38;5.20;;;;;;;21.32;22.32;97182.72;1839514;77;21112;-54
2021/04/11 06:02:00;;;;;;;9.63;5.30;;;;;;;21.50;22.43;97189.23;1800428;77;21060;-55
2021/04/11 06:04:39;;;;;;;10.65;5.53;;;;;;;21.21;21.90;97180.88;1839459;77;21351;-54
2021/04/11 06:07:26;;;;;;;9.58;5.30;;;;;;;20.83;22.60;97178.60;1845732;77;21062;-54
2021/04/11 06:10:06;;;;;;;9.70;5.50;;;;;;;21.22;22.96;97181.23;1842615;77;21545;-54
2021/04/11 06:12:52;;;;;;;9.48;4.70;;;;;;;22.14;21.53;97182.47;1837333;77;21147;-55
2021/04/11 06:15:38;;;;;;;9.70;5.37;;;;;;;22.60;21.19;97177.48;1830944;77;21143;-54
2021/04/11 06:18:06;;;;;;;9.40;5.40;;;;;;;23.13;20.86;97179.11;1818185;77;21356;-54
2021/04/11 06:20:35;;;;;;;8.18;4.90;;;;;;;23.93;20.13;97181.09;1772254;79;21573;-54
2021/04/11 06:23:42;;;;;;;7.37;5.42;;;;;;;24.40;19.54;97176.03;1780833;79;21195;-55
2021/04/11 06:26:49;;;;;;;13.40;5.55;;;;;;;24.68;19.35;97174.92;1807915;78;21175;-54
2021/04/11 06:29:27;;;;;;;11.05;4.95;;;;;;;25.26;19.07;97179.00;1809382;79;21471;-55
2021/04/11 06:32:03;;;;;;;6.40;5.25;;;;;;;25.69;17.20;97176.44;1800978;79;22410;-53
2021/04/11 06:34:36;;;;;;;9.85;5.08;;;;;;;24.89;17.30;97183.47;1796582;79;21658;-53
2021/04/11 06:37:06;;;;;;;9.63;5.30;;;;;;;24.22;17.72;97179.83;1770746;80;21540;-53
2021/04/11 06:39:38;;;;;;;8.58;4.87;;;;;;;23.88;17.49;97186.44;1804020;79;21553;-53
2021/04/11 06:42:44;;;;;;;6.25;5.08;;;;;;;23.35;18.14;97177.49;1811032;78;21148;-54
2021/04/11 06:45:20;;;;;;;18.70;5.28;;;;;;;23.01;18.21;97180.45;1794428;79;21116;-54
2021/04/11 06:48:24;;;;;;;14.18;4.85;;;;;;;22.68;19.04;97172.16;1780479;79;21187;-54
2021/04/11 06:51:20;;;;;;;8.50;4.30;;;;;;;22.99;18.90;97171.36;1791268;79;21168;-55
2021/04/11 06:54:22;;;;;;;4.80;4.20;;;;;;;22.70;18.19;97170.67;1804435;78;21597;-53
2021/04/11 06:56:59;;;;;;;5.50;4.17;;;;;;;21.72;19.31;97168.45;1802966;78;21140;-53
2021/04/11 06:59:42;;;;;;;7.05;4.60;;;;;;;21.52;19.04;97175.86;1805848;78;21431;-54
2021/04/11 07:02:52;;;;;;;6.22;4.62;;;;;;;21.66;18.98;97184.95;1789625;79;21163;-54
2021/04/11 07:05:55;;;;;;;7.95;4.62;;;;;;;22.00;18.87;97173.41;1755581;80;21624;-53
2021/04/11 07:09:12;;;;;;;10.05;4.70;;;;;;;22.31;18.61;97171.42;1755919;80;21128;-54
2021/04/11 07:12:07;;;;;;;7.20;4.47;;;;;;;22.78;18.27;97174.61;1729375;82;21543;-54
2021/04/11 07:15:31;;;;;;;8.75;4.50;;;;;;;23.00;18.20;97174.34;1770403;80;21224;-53
2021/04/11 07:18:25;;;;;;;6.17;4.95;;;;;;;23.36;18.27;97169.07;1763567;80;21126;-53
2021/04/11 07:21:12;;;;;;;5.87;4.20;;;;;;;23.38;18.24;97167.06;1772997;80;21145;-53
2021/04/11 07:24:24;;;;;;;6.35;4.30;;;;;;;22.91;18.29;97168.27;1767594;80;21188;-53
2021/04/11 07:27:04;;;;;;;5.15;4.55;;;;;;;22.59;18.93;97167.38;1777068;80;21131;-53
2021/04/11 07:30:15;;;;;;;8.03;4.65;;;;;;;22.80;18.03;97162.03;1758770;80;21137;-54
2021/04/11 07:33:11;;;;;;;9.45;4.72;;;;;;;21.94;18.80;97159.53;1764162;80;21528;-54
2021/04/11 07:36:20;;;;;;;4.87;4.22;;;;;;;20.74;19.75;97168.52;1756700;80;21119;-54
2021/04/11 07:39:32;;;;;;;5.75;4.67;;;;;;;20.03;20.32;97159.00;1762208;80;21130;-54
2021/04/11 07:42:20;;;;;;;24.80;6.22;;;;;;;19.30;21.14;97165.27;1805817;79;21461;-53
2021/04/11 07:45:13;;;;;;;18.23;5.15;;;;;;;18.81;21.86;97162.06;1802793;78;21370;-54
2021/04/11 07:48:02;;;;;;;6.45;4.62;;;;;;;19.10;22.25;97163.25;1802128;79;21124;-55
2021/04/11 07:50:54;;;;;;;6.80;4.85;;;;;;;19.44;21.64;97155.55;1811089;78;21200;-53
2021/04/11 07:53:49;;;;;;;15.83;5.12;;;;;;;19.47;22.20;97159.66;1808187;78;21128;-54
2021/04/11 07:56:59;;;;;;;7.92;5.22;;;;;;;19.18;21.71;97157.23;1807193;78;21505;-54
2021/04/11 07:59:58;;;;;;;13.08;5.45;;;;;;;18.49;23.14;97160.69;1766232;80;22297;-55
2021/04/11 08:02:34;;;;;;;13.13;5.95;;;;;;;18.19;24.64;97152.04;1730237;82;21086;-56
2021/04/11 08:06:00;;;;;;;8.13;5.80;;;;;;;18.51;23.79;97160.87;1756413;79;21578;-54
2021/04/11 08:09:06;;;;;;;12.33;6.92;;;;;;;18.57;23.71;97163.42;1805798;79;21512;-54
2021/04/11 08:12:13;;;;;;;10.88;6.10;;;;;;;18.42;24.14;97157.81;1802803;79;21056;-53
2021/04/11 08:15:05;;;;;;;11.60;6.87;;;;;;;18.31;23.90;97164.05;1804942;78;21550;-54
2021/04/11 08:17:59;;;;;;;10.23;6.72;;;;;;;18.06;24.52;97164.65;1797950;78;21005;-54
2021/04/11 08:20:48;;;;;;;12.98;7.72;;;;;;;18.12;24.62;97162.28;1803480;78;21053;-53
2021/04/11 08:23:33;;;;;;;15.37;6.87;;;;;;;17.97;24.79;97159.27;1805628;79;21116;-53
2021/04/11 08:26:40;;;;;;;14.38;7.58;;;;;;;17.71;25.10;97163.42;1800152;78;21386;-54
2021/04/11 08:29:43;;;;;;;14.23;6.83;;;;;;;17.86;25.35;97165.95;1798454;79;22230;-53
2021/04/11 08:33:05;;;;;;;26.75;7.97;;;;;;;18.35;24.56;97155.39;1810787;78;21530;-53
2021/04/11 08:36:20;;;;;;;10.23;7.22;;;;;;;18.92;24.21;97153.52;1794037;78;21104;-53
2021/04/11 08:39:31;;;;;;;31.35;8.50;;;;;;;19.63;23.37;97142.70;1799900;79;21164;-53
2021/04/11 08:42:27;;;;;;;12.37;7.60;;;;;;;19.71;23.31;97147.22;1804668;79;21103;-53
2021/04/11 08:45:46;;;;;;;11.97;7.28;;;;;;;19.46;23.77;97139.11;1801495;78;22184;-53
2021/04/11 08:51:57;;;;;;;24.52;8.73;;;;;;;19.37;23.49;97149.70;1671336;83;21102;-55
2021/04/11 08:54:50;;;;;;;17.62;7.28;;;;;;;19.27;24.83;97144.02;1682611;84;21170;-53
2021/04/11 08:57:40;;;;;;;31.97;8.60;;;;;;;19.66;23.87;97142.41;1675973;83;21065;-54
2021/04/11 09:00:22;;;;;;;14.78;8.53;;;;;;;19.76;23.77;97138.91;1679445;84;21160;-55
2021/04/11 09:03:30;;;;;;;14.75;7.47;;;;;;;19.29;24.48;97140.77;1675949;84;21221;-53
2021/04/11 09:06:28;;;;;;;11.22;7.17;;;;;;;18.54;25.34;97151.38;1675303;83;21603;-53
2021/04/11 09:09:23;;;;;;;17.95;8.85;;;;;;;17.79;25.53;97140.75;1671636;83;21091;-55
2021/04/11 09:12:07;;;;;;;14.80;9.05;;;;;;;17.64;26.33;97139.53;1671751;83;21214;-54
2021/04/11 09:14:41;;;;;;;17.60;9.23;;;;;;;17.62;27.23;97127.05;1674319;83;22425;-53
2021/04/11 09:17:49;;;;;;;41.68;27.98;;;;;;;18.07;26.05;97123.81;1678006;84;21114;-53
2021/04/11 09:20:32;;;;;;;16.60;8.20;;;;;;;18.35;26.28;97126.49;1676207;84;21091;-55
2021/04/11 09:23:12;;;;;;;33.30;20.88;;;;;;;18.23;25.57;97124.53;1641305;85;21124;-54
2021/04/11 09:25:40;;;;;;;16.65;7.78;;;;;;;18.15;25.80;97119.17;1675288;84;21149;-54
2021/04/11 09:28:43;;;;;;;13.95;7.75;;;;;;;18.28;25.76;97142.00;1634860;84;22137;-53
2021/04/11 09:31:29;;;;;;;22.70;11.93;;;;;;;18.35;25.71;97125.19;1667782;84;21209;-53
2021/04/11 09:34:26;;;;;;;28.52;18.35;;;;;;;18.00;26.33;97120.11;1663599;84;21158;-53
2021/04/11 09:37:17;;;;;;;15.58;7.95;;;;;;;17.69;27.35;97117.64;1673436;83;21595;-54
2021/04/11 09:39:54;;;;;;;32.67;19.20;;;;;;;17.57;27.06;97121.39;1672845;83;21167;-54
2021/04/11 09:42:39;;;;;;;23.30;12.85;;;;;;;17.36;27.24;97125.46;1667087;85;22604;-54
2021/04/11 09:45:38;;;;;;;17.30;11.00;;;;;;;17.19;28.07;97134.84;1674684;83;21164;-55
2021/04/11 09:48:32;;;;;;;26.23;16.40;;;;;;;17.13;28.45;97112.60;1659997;85;21194;-54
2021/04/11 09:51:11;;;;;;;19.12;10.45;;;;;;;17.17;28.08;97121.02;1691255;83;21088;-55
2021/04/11 09:54:17;;;;;;;17.87;11.30;;;;;;;17.19;28.36;97104.69;1698291;81;21160;-54
2021/04/11 09:57:32;;;;;;;25.43;16.35;;;;;;;17.06;28.40;97108.39;1703913;82;21239;-54
2021/04/11 10:00:09;;;;;;;19.55;9.60;;;;;;;16.88;28.96;97108.22;1691246;83;21167;-54
2021/04/11 10:02:42;;;;;;;18.17;10.58;;;;;;;17.04;28.94;97112.94;1698612;82;21102;-54
2021/04/11 10:05:19;;;;;;;11.78;6.12;;;;;;;17.15;27.95;97106.73;1702329;83;21099;-57
2021/04/11 10:08:24;;;;;;;9.98;6.95;;;;;;;17.28;27.92;97094.17;1709272;83;21243;-54
2021/04/11 10:11:31;;;;;;;17.23;9.50;;;;;;;17.26;27.89;97097.92;1698471;83;21228;-53
2021/04/11 10:14:31;;;;;;;15.10;6.92;;;;;;;17.15;27.84;97096.73;1699311;82;21108;-54
2021/04/11 10:17:07;;;;;;;30.05;7.17;;;;;;;17.04;27.80;97090.66;1701758;83;21180;-55
2021/04/11 10:19:58;;;;;;;12.55;5.50;;;;;;;17.27;27.49;97099.59;1697303;83;21596;-55
2021/04/11 10:22:47;;;;;;;14.95;8.65;;;;;;;17.34;26.64;97107.23;1679977;83;21527;-54
2021/04/11 10:26:02;;;;;;;12.03;7.28;;;;;;;17.25;27.57;97083.98;1667085;83;21210;-55
2021/04/11 10:28:45;;;;;;;13.03;5.55;;;;;;;17.31;28.77;97089.15;1644041;85;21531;-54
2021/04/11 10:31:27;;;;;;;15.13;6.33;;;;;;;17.54;27.10;97075.75;1644706;85;21181;-53
2021/04/11 10:34:13;;;;;;;10.53;6.00;;;;;;;17.71;26.53;97077.64;1642590;84;21167;-53
2021/04/11 10:37:22;;;;;;;21.62;6.50;;;;;;;17.78;26.59;97081.84;1633826;84;21239;-54
2021/04/11 10:40:10;;;;;;;33.98;6.60;;;;;;;17.77;26.08;97077.08;1663481;84;21399;-55
2021/04/11 10:43:25;;;;;;;17.27;5.62;;;;;;;17.84;25.77;97068.16;1674296;84;21098;-51
2021/04/11 10:45:58;;;;;;;20.80;6.92;;;;;;;17.82;25.95;97071.41;1663195;84;21243;-55
2021/04/11 10:49:03;;;;;;;10.45;6.50;;;;;;;17.75;26.72;97062.46;1676593;84;21147;-56
2021/04/11 10:51:47;;;;;;;8.58;5.40;;;;;;;17.79;26.99;97055.95;1666898;84;21079;-53
2021/04/11 10:54:43;;;;;;;9.43;6.28;;;;;;;17.82;26.38;97060.42;1680856;84;22304;-54
2021/04/11 10:57:40;;;;;;;9.78;5.15;;;;;;;17.70;26.61;97060.26;1628127;86;21224;-53
2021/04/11 11:00:39;;;;;;;9.75;5.08;;;;;;;17.66;26.84;97053.16;1638677;86;21093;-55
2021/04/11 11:03:27;;;;;;;;;;;;;;;17.88;26.21;97065.64;1640329;86;21199;-53
2021/04/11 11:06:33;;;;;;;15.75;5.20;;;;;;;18.04;27.18;97049.26;1666184;84;20231;-54
2021/04/11 11:09:31;;;;;;;10.00;5.37;;;;;;;18.29;25.21;97045.63;1648070;85;22389;-53
2021/04/11 11:12:17;;;;;;;30.70;6.20;;;;;;;18.20;25.25;97042.09;1668832;84;21550;-54
2021/04/11 11:15:21;;;;;;;16.87;5.78;;;;;;;18.18;25.89;97031.73;1676356;84;21216;-53
2021/04/11 11:18:17;;;;;;;8.03;4.87;;;;;;;18.35;25.31;97033.23;1674119;84;21670;-53
2021/04/11 11:21:23;;;;;;;7.10;4.30;;;;;;;18.18;25.65;97023.84;1665769;84;21511;-54
2021/04/11 11:24:18;;;;;;;8.83;5.10;;;;;;;18.01;25.23;97039.07;1616892;87;21644;-54
2021/04/11 11:27:28;;;;;;;6.40;4.75;;;;;;;17.87;26.13;97025.91;1671960;84;21175;-53
2021/04/11 11:30:20;;;;;;;14.45;5.42;;;;;;;17.85;25.33;97031.77;1666700;84;21180;-54
2021/04/11 11:33:12;;;;;;;21.52;6.03;;;;;;;17.80;26.03;97024.80;1670609;83;21159;-54
2021/04/11 11:36:31;;;;;;;10.23;5.22;;;;;;;17.79;26.50;97018.70;1669377;84;21144;-55
2021/04/11 11:39:32;;;;;;;15.05;5.62;;;;;;;17.91;25.65;97017.25;1708394;82;22234;-52
2021/04/11 11:42:44;;;;;;;39.63;5.95;;;;;;;18.00;25.91;97021.66;1713353;82;21182;-55
2021/04/11 11:45:35;;;;;;;16.10;5.30;;;;;;;18.09;25.19;97017.33;1714967;82;21108;-55
2021/04/11 11:48:36;;;;;;;29.45;6.50;;;;;;;18.09;25.20;97026.52;1711815;82;21221;-57
2021/04/11 11:51:41;;;;;;;7.17;4.90;;;;;;;18.11;25.59;97010.97;1706165;83;21145;-53
2021/04/11 11:54:25;;;;;;;9.83;4.97;;;;;;;18.16;25.03;97000.03;1713777;81;21352;-53
2021/04/11 11:57:23;;;;;;;18.48;4.75;;;;;;;18.12;25.31;96996.03;1699840;81;21134;-53
2021/04/11 12:00:30;;;;;;;14.95;5.50;;;;;;;17.99;24.98;96987.17;1714470;82;21139;-53
2021/04/11 12:03:25;;;;;;;7.40;4.58;;;;;;;17.75;25.46;96997.67;1677302;82;21567;-52
2021/04/11 12:06:22;;;;;;;7.60;4.90;;;;;;;17.71;25.82;96980.54;1705172;81;21135;-53
2021/04/11 12:09:07;;;;;;;10.08;4.60;;;;;;;17.94;25.46;96979.72;1680860;82;22118;-54
2021/04/11 12:11:52;;;;;;;26.40;6.00;;;;;;;17.97;25.36;96966.31;1709009;81;21168;-54
2021/04/11 12:14:52;;;;;;;22.65;5.50;;;;;;;17.97;24.99;96983.37;1710504;82;21174;-55
2021/04/11 12:17:41;;;;;;;28.70;6.30;;;;;;;17.97;25.50;96970.74;1711722;82;21532;-53
2021/04/11 12:20:22;;;;;;;10.85;5.08;;;;;;;18.03;25.55;96970.17;1711083;82;21054;-53
2021/04/11 12:22:55;;;;;;;23.27;5.90;;;;;;;18.17;25.24;96964.91;1737738;80;21608;-53
2021/04/11 12:25:28;;;;;;;32.08;6.25;;;;;;;18.10;25.12;96980.91;1738233;80;21579;-54
2021/04/11 12:27:57;;;;;;;8.88;4.53;;;;;;;18.07;25.49;96981.20;1741939;80;21572;-55
2021/04/11 12:30:38;;;;;;;9.43;5.12;;;;;;;18.10;25.17;96972.54;1735467;80;21111;-54
2021/04/11 12:33:29;;;;;;;8.33;4.90;;;;;;;17.97;25.21;96973.38;1727846;80;21447;-55
2021/04/11 12:36:43;;;;;;;13.40;4.90;;;;;;;17.88;25.50;96936.16;1731158;80;22221;-54
2021/04/11 12:39:17;;;;;;;43.08;7.25;;;;;;;17.84;25.41;96949.58;1737391;80;21142;-55
2021/04/11 12:42:28;;;;;;;15.80;5.03;;;;;;;17.79;25.62;96954.41;1733594;80;21119;-53
2021/04/11 12:45:17;;;;;;;17.73;5.45;;;;;;;17.74;25.33;96938.77;1688689;82;21495;-53
2021/04/11 12:48:29;;;;;;;22.48;5.37;;;;;;;17.72;26.00;96937.59;1725795;80;21155;-53
2021/04/11 12:51:06;;;;;;;40.55;7.80;;;;;;;17.97;25.88;96933.49;1746016;80;21359;-53
2021/04/11 12:54:03;;;;;;;19.60;5.95;;;;;;;18.16;24.88;96922.56;1708864;81;21579;-54
2021/04/11 12:56:32;;;;;;;43.37;6.53;;;;;;;18.19;25.28;96919.16;1731736;80;21155;-53
2021/04/11 13:02:15;;;;;;;33.48;5.80;;;;;;;18.43;25.16;96919.05;1732562;80;21523;-52
2021/04/11 13:04:48;;;;;;;7.95;4.62;;;;;;;18.48;24.30;96924.68;1727450;80;21584;-53
2021/04/11 13:07:27;;;;;;;7.97;4.78;;;;;;;18.43;24.54;96920.86;1734418;80;21076;-53